Time;durP1;ratioP1;P1;durP2;ratioP2;P2;SDS_P1;SDS_P2;PMS_P1;PMS_P2;Temp;Humidity;BMP_temperature;BMP_pressure;BME280_temperature;BME280_humidity;BME280_pressure;Samples;Min_cycle;Max_cycle;Signal;HPM_P1;HPM_P2
2023/07/21 00:03:53;;;;;;;5.00;2.22;;;;;;;23.82;46.63;99788.66;10366015;28;20049;-74
2023/07/21 00:08:54;;;;;;;5.93;2.40;;;;;;;23.52;46.74;99756.84;10367195;28;20124;-73
2023/07/21 00:13:55;;;;;;;7.07;2.28;;;;;;;23.72;46.82;99792.13;10366506;28;20046;-73
2023/07/21 00:18:56;;;;;;;7.60;2.50;;;;;;;23.66;47.00;99804.88;10366852;28;20090;-74
2023/07/21 00:23:57;;;;;;;7.10;3.15;;;;;;;23.16;46.43;99726.94;10367109;28;20050;-73
2023/07/21 00:28:58;;;;;;;4.75;2.20;;;;;;;23.60;46.42;99803.22;10366383;28;20046;-74
2023/07/21 00:33:59;;;;;;;3.25;1.80;;;;;;;23.21;46.13;99738.59;10366529;28;20048;-73
2023/07/21 00:38:59;;;;;;;6.95;2.10;;;;;;;23.55;46.07;99805.91;10365864;28;20041;-73
2023/07/21 00:44:01;;;;;;;5.00;1.95;;;;;;;22.53;45.90;99646.50;10365160;28;20106;-73
2023/07/21 00:49:02;;;;;;;3.75;1.83;;;;;;;23.11;45.92;99748.56;10365575;28;20042;-74
2023/07/21 00:54:03;;;;;;;5.53;1.83;;;;;;;23.25;46.34;99782.22;10366590;28;20129;-74
2023/07/21 00:59:04;;;;;;;4.53;1.80;;;;;;;22.96;46.51;99757.44;10359777;28;20626;-74
2023/07/21 01:04:05;;;;;;;4.15;2.00;;;;;;;23.09;46.42;99788.66;10346920;28;20084;-75
2023/07/21 01:09:08;;;;;;;2.78;1.63;;;;;;;22.73;46.58;99737.81;10365990;28;20481;-73
2023/07/21 01:14:09;;;;;;;6.40;1.85;;;;;;;22.55;46.35;99720.13;10364903;28;20049;-73
2023/07/21 01:19:15;;;;;;;20.38;2.40;;;;;;;22.97;46.13;99797.00;10365948;28;20046;-73
2023/07/21 01:24:37;;;;;;;32.05;2.55;;;;;;;22.94;46.11;99786.66;10365265;28;20049;-75
2023/07/21 01:29:41;;;;;;;14.60;2.20;;;;;;;23.05;45.70;99810.03;10365070;28;20066;-73
2023/07/21 01:34:43;;;;;;;4.50;1.60;;;;;;;23.13;45.11;99811.44;10364382;28;20072;-74
2023/07/21 01:39:46;;;;;;;15.43;2.70;;;;;;;23.17;45.08;99801.69;10366935;28;20132;-73
2023/07/21 01:44:47;;;;;;;5.97;1.80;;;;;;;23.22;44.77;99796.31;10371956;28;20119;-74
2023/07/21 01:49:48;;;;;;;11.73;2.28;;;;;;;23.09;44.01;99767.78;10371590;28;20206;-73
2023/07/21 01:54:56;;;;;;;19.70;2.80;;;;;;;23.34;43.97;99796.91;10370961;28;20121;-75
2023/07/21 02:00:00;;;;;;;7.15;1.80;;;;;;;22.87;43.46;99723.78;10371429;28;20050;-74
2023/07/21 02:05:01;;;;;;;4.72;1.40;;;;;;;22.98;43.29;99722.81;10370221;28;20046;-74
2023/07/21 02:10:04;;;;;;;6.88;1.80;;;;;;;23.45;42.99;99789.59;10381293;28;20038;-74
2023/07/21 02:15:06;;;;;;;6.07;1.70;;;;;;;22.94;42.45;99699.97;10585486;28;20044;-74
2023/07/21 02:20:09;;;;;;;11.70;1.88;;;;;;;23.57;42.53;99779.34;10583698;28;20483;-74
2023/07/21 02:25:10;;;;;;;5.45;1.95;;;;;;;23.58;42.45;99753.06;10584681;28;20498;-75
2023/07/21 02:30:11;;;;;;;11.00;1.85;;;;;;;22.99;42.23;99654.00;10584612;28;20076;-74
2023/07/21 02:35:12;;;;;;;12.60;1.65;;;;;;;23.67;42.34;99746.03;10583406;28;20479;-74
2023/07/21 02:40:13;;;;;;;8.30;1.70;;;;;;;24.16;42.47;99794.38;10583341;28;20028;-74
2023/07/21 02:45:13;;;;;;;13.38;1.98;;;;;;;24.64;41.86;99791.38;10583948;28;20062;-75
2023/07/21 02:50:15;;;;;;;5.60;1.80;;;;;;;25.19;41.28;99784.19;10583723;28;20042;-75
2023/07/21 02:55:17;;;;;;;9.68;2.20;;;;;;;25.85;41.29;99764.78;10583280;28;20040;-73
2023/07/21 03:00:18;;;;;;;12.90;2.38;;;;;;;26.56;40.70;99770.72;10582692;28;20036;-74
2023/07/21 03:05:19;;;;;;;10.73;2.20;;;;;;;27.03;40.16;99777.31;10582993;28;20506;-73
2023/07/21 03:10:19;;;;;;;7.03;2.45;;;;;;;26.79;39.94;99647.31;10582432;28;20043;-74
2023/07/21 03:15:20;;;;;;;5.05;2.10;;;;;;;28.02;39.44;99757.41;10581846;28;20487;-74
2023/07/21 03:20:21;;;;;;;18.33;2.83;;;;;;;28.91;39.10;99800.09;10582216;28;20049;-73
2023/07/21 03:25:22;;;;;;;10.63;2.33;;;;;;;29.80;38.27;99782.38;10581640;28;20047;-74
2023/07/21 03:30:22;;;;;;;3.17;2.03;;;;;;;30.40;36.82;99726.41;10581481;28;20059;-75
2023/07/21 03:35:23;;;;;;;11.85;2.50;;;;;;;31.33;35.92;99789.31;10581035;28;20043;-74
2023/07/21 03:40:24;;;;;;;16.85;3.00;;;;;;;31.34;35.52;99716.88;10580866;28;20118;-73
2023/07/21 03:45:26;;;;;;;7.35;2.60;;;;;;;32.14;35.52;99735.72;10438228;28;20062;-74
2023/07/21 03:50:28;;;;;;;8.00;2.60;;;;;;;32.45;35.24;99784.97;10343931;28;20081;-74
2023/07/21 03:55:28;;;;;;;4.93;2.22;;;;;;;32.85;34.93;99781.94;10382764;28;20034;-73
2023/07/21 04:00:29;;;;;;;8.95;2.80;;;;;;;33.45;34.35;99787.44;10365533;28;20041;-76
2023/07/21 04:05:30;;;;;;;9.63;3.00;;;;;;;32.74;34.46;99608.22;10363449;28;20038;-74
2023/07/21 04:10:32;;;;;;;8.30;2.85;;;;;;;34.40;34.00;99788.56;10363684;28;20049;-74
2023/07/21 04:15:32;;;;;;;17.77;3.45;;;;;;;34.95;34.01;99759.69;10366220;28;20515;-74
2023/07/21 04:20:33;;;;;;;23.93;4.00;;;;;;;34.50;33.87;99713.69;10364232;28;20080;-74
2023/07/21 04:25:35;;;;;;;11.98;3.08;;;;;;;34.66;34.47;99769.00;10358275;28;20050;-83
2023/07/21 04:30:36;;;;;;;12.82;3.40;;;;;;;34.95;34.87;99782.56;10348035;28;20042;-82
2023/07/21 04:35:42;;;;;;;8.82;3.20;;;;;;;34.72;35.48;99753.81;10345731;28;20482;-84
2023/07/21 04:40:44;;;;;;;8.23;3.00;;;;;;;34.65;35.92;99778.44;10363669;28;20443;-87
2023/07/21 04:45:45;;;;;;;9.45;4.10;;;;;;;34.14;36.87;99775.88;10354254;28;20065;-82
2023/07/21 04:50:51;;;;;;;18.67;3.95;;;;;;;33.99;37.34;99760.75;10347782;28;20069;-85
2023/07/21 04:55:57;;;;;;;10.57;3.40;;;;;;;33.74;37.10;99748.03;10360406;28;20493;-84
2023/07/21 05:00:58;;;;;;;9.13;3.22;;;;;;;33.64;37.39;99757.50;10348910;28;20432;-85
2023/07/21 05:05:58;;;;;;;10.13;3.78;;;;;;;32.96;37.61;99631.03;10363406;28;20128;-83
2023/07/21 05:10:59;;;;;;;12.13;3.67;;;;;;;33.26;37.40;99688.78;10365327;28;20451;-84
2023/07/21 05:16:00;;;;;;;7.32;3.42;;;;;;;33.10;38.55;99722.41;10359196;28;20034;-83
2023/07/21 05:21:01;;;;;;;12.18;3.88;;;;;;;32.82;39.35;99743.25;10358591;28;20053;-84
2023/07/21 05:26:03;;;;;;;15.35;3.80;;;;;;;32.54;40.18;99751.97;10368933;28;20067;-83
2023/07/21 05:31:04;;;;;;;15.35;4.10;;;;;;;32.43;39.99;99745.19;10365314;28;20054;-83
2023/07/21 05:36:07;;;;;;;14.32;3.70;;;;;;;32.11;40.71;99699.88;10378921;28;20049;-84
2023/07/21 05:41:08;;;;;;;14.90;3.67;;;;;;;32.60;40.20;99764.38;10356118;28;20105;-85
2023/07/21 05:46:09;;;;;;;16.48;5.35;;;;;;;32.32;40.48;99689.75;10348761;28;20034;-84
2023/07/21 05:51:13;;;;;;;12.32;4.88;;;;;;;32.89;40.26;99749.06;10347978;28;20589;-83
2023/07/21 05:56:14;;;;;;;23.73;5.45;;;;;;;32.79;39.87;99724.66;10366511;28;20120;-86
2023/07/21 06:01:15;;;;;;;17.13;4.40;;;;;;;32.83;40.21;99720.13;10347577;28;20136;-85
2023/07/21 06:06:15;;;;;;;21.65;5.57;;;;;;;32.33;40.83;99616.34;10351229;28;20049;-82
2023/07/21 06:11:16;;;;;;;16.58;5.07;;;;;;;33.13;40.53;99705.22;10350403;28;20042;-81
2023/07/21 06:16:17;;;;;;;12.45;4.70;;;;;;;33.13;40.38;99674.16;10353886;28;20038;-85
2023/07/21 06:21:19;;;;;;;19.85;5.45;;;;;;;33.33;40.37;99746.88;10347882;28;20057;-78
2023/07/21 06:26:20;;;;;;;;;;;;;;;33.69;40.07;99739.97;10350803;28;20470;-82
2023/07/21 06:31:21;;;;;;;8.25;3.85;;;;;;;33.36;39.68;99718.69;10352494;28;19921;-85
2023/07/21 06:36:22;;;;;;;13.40;4.10;;;;;;;33.64;40.07;99729.97;10350756;28;20034;-81
2023/07/21 06:41:23;;;;;;;9.95;4.10;;;;;;;33.52;39.63;99721.66;10368962;28;20058;-83
2023/07/21 06:46:24;;;;;;;12.23;4.20;;;;;;;33.57;40.36;99733.28;10360013;28;20045;-82
2023/07/21 06:51:24;;;;;;;12.23;4.40;;;;;;;33.47;39.77;99719.88;10369271;28;20037;-80
2023/07/21 06:56:25;;;;;;;7.78;3.95;;;;;;;33.65;39.63;99728.81;10366463;28;20074;-80
2023/07/21 07:01:26;;;;;;;9.35;4.22;;;;;;;33.71;39.01;99710.13;10368890;28;20141;-79
2023/07/21 07:06:29;;;;;;;7.50;3.95;;;;;;;33.49;38.98;99640.50;10369586;28;20048;-80
2023/07/21 07:11:30;;;;;;;17.33;4.63;;;;;;;34.05;39.12;99701.56;10368309;28;20034;-81
2023/07/21 07:16:31;;;;;;;13.48;3.60;;;;;;;34.42;38.32;99718.16;10368293;28;20042;-78
2023/07/21 07:21:32;;;;;;;10.18;4.32;;;;;;;34.54;38.36;99731.97;10366343;28;20053;-81
2023/07/21 07:26:33;;;;;;;43.00;5.10;;;;;;;34.49;37.51;99715.63;10368504;28;20042;-79
2023/07/21 07:31:36;;;;;;;12.00;4.18;;;;;;;34.44;38.00;99701.28;10367759;28;20045;-77
2023/07/21 07:36:37;;;;;;;15.75;4.93;;;;;;;34.61;37.18;99711.28;10368142;28;20480;-78
2023/07/21 07:41:41;;;;;;;13.82;4.70;;;;;;;34.34;37.78;99630.03;10367920;28;20092;-79
2023/07/21 07:46:42;;;;;;;11.15;4.78;;;;;;;34.31;36.81;99637.03;10366897;28;20049;-80
2023/07/21 07:51:43;;;;;;;19.75;6.15;;;;;;;34.82;36.50;99694.59;10367146;28;20049;-79
2023/07/21 07:56:46;;;;;;;7.38;4.93;;;;;;;34.42;35.93;99635.41;10367671;28;20048;-79
2023/07/21 08:01:46;;;;;;;10.98;5.38;;;;;;;34.84;35.74;99700.59;10366107;28;20046;-78
2023/07/21 08:06:47;;;;;;;29.85;5.90;;;;;;;34.56;35.60;99681.19;10363005;28;20493;-76
2023/07/21 08:11:48;;;;;;;12.10;5.00;;;;;;;34.38;36.18;99670.34;10364435;28;20417;-79
2023/07/21 08:16:49;;;;;;;11.80;4.70;;;;;;;34.46;35.16;99672.22;10365122;28;20053;-76
2023/07/21 08:21:50;;;;;;;18.45;4.85;;;;;;;34.42;34.94;99638.19;10365989;28;20098;-77
2023/07/21 08:26:50;;;;;;;5.65;4.43;;;;;;;34.63;34.54;99621.53;10363991;28;20049;-80
2023/07/21 08:31:52;;;;;;;5.68;3.80;;;;;;;34.83;33.91;99655.66;10361021;28;20038;-78
2023/07/21 08:36:53;;;;;;;7.00;3.83;;;;;;;34.81;34.38;99635.88;10365541;28;20044;-80
2023/07/21 08:41:54;;;;;;;13.45;3.65;;;;;;;35.10;34.11;99656.88;10365688;28;20224;-80
2023/07/21 08:46:55;;;;;;;12.90;3.60;;;;;;;35.23;33.56;99671.44;10365764;28;20049;-78
2023/07/21 08:51:56;;;;;;;13.05;3.83;;;;;;;35.12;33.59;99665.63;10372749;28;20505;-77
2023/07/21 08:56:57;;;;;;;11.55;3.28;;;;;;;34.37;34.01;99525.34;10372631;28;20046;-78
2023/07/21 09:01:58;;;;;;;12.00;3.28;;;;;;;35.26;32.18;99651.41;10373062;28;20038;-78
2023/07/21 09:07:00;;;;;;;16.20;4.28;;;;;;;35.49;33.01;99650.88;10372750;28;20042;-77
2023/07/21 09:12:04;;;;;;;14.45;3.95;;;;;;;35.70;32.42;99662.53;10372821;28;20069;-78
2023/07/21 09:17:06;;;;;;;11.90;3.92;;;;;;;35.19;32.33;99596.81;10371996;28;20481;-79
2023/07/21 09:22:08;;;;;;;8.75;3.53;;;;;;;35.65;31.79;99651.72;10372466;28;20038;-76
2023/07/21 09:27:13;;;;;;;31.40;5.32;;;;;;;35.45;32.84;99631.44;10369365;28;20125;-77
2023/07/21 09:32:16;;;;;;;14.13;3.78;;;;;;;35.35;31.71;99587.75;10369586;28;20046;-82
2023/07/21 09:37:17;;;;;;;12.40;3.60;;;;;;;35.89;30.69;99654.34;10371431;28;20042;-79
2023/07/21 09:42:22;;;;;;;15.38;4.50;;;;;;;35.57;30.50;99594.69;10371739;28;20056;-79
2023/07/21 09:47:23;;;;;;;8.10;3.75;;;;;;;35.53;30.48;99574.44;10371538;28;20409;-76
2023/07/21 09:52:26;;;;;;;7.75;3.83;;;;;;;36.10;30.02;99636.75;10372557;28;20541;-79
2023/07/21 09:57:33;;;;;;;13.95;3.92;;;;;;;36.24;30.97;99626.03;10371021;28;20045;-81
2023/07/21 10:02:34;;;;;;;9.50;3.33;;;;;;;35.35;29.90;99491.91;10370477;28;20038;-79
2023/07/21 10:07:38;;;;;;;11.47;3.77;;;;;;;36.38;29.81;99605.41;10370520;28;20114;-77
2023/07/21 10:12:52;;;;;;;12.27;3.08;;;;;;;36.54;30.18;99606.22;10365273;28;20045;-79
2023/07/21 10:17:58;;;;;;;12.38;3.00;;;;;;;36.34;28.34;99597.03;10370654;28;20045;-78
2023/07/21 10:22:59;;;;;;;17.83;2.85;;;;;;;36.04;29.25;99533.91;10370048;28;20064;-75
2023/07/21 10:28:03;;;;;;;25.93;3.73;;;;;;;36.06;29.29;99534.38;10371253;28;20050;-79
2023/07/21 10:33:17;;;;;;;10.43;2.90;;;;;;;36.40;29.37;99556.88;10370081;28;20065;-78
2023/07/21 10:38:18;;;;;;;6.72;2.90;;;;;;;36.30;29.86;99552.69;10369981;28;20102;-81
2023/07/21 10:43:19;;;;;;;10.77;3.03;;;;;;;36.34;29.73;99516.81;10370169;28;20062;-76
2023/07/21 10:48:22;;;;;;;8.55;3.10;;;;;;;36.76;28.81;99586.13;10369334;28;20125;-80
2023/07/21 10:53:23;;;;;;;6.22;3.15;;;;;;;36.66;30.19;99542.44;10364683;28;20029;-79
2023/07/21 10:58:27;;;;;;;9.87;3.13;;;;;;;36.92;29.55;99579.75;10356793;28;20101;-79
2023/07/21 11:03:28;;;;;;;6.28;2.53;;;;;;;36.87;29.12;99564.22;10351315;28;20110;-80
2023/07/21 11:08:29;;;;;;;11.70;2.97;;;;;;;36.43;29.55;99516.63;10350659;28;20038;-80
2023/07/21 11:13:30;;;;;;;12.18;3.13;;;;;;;36.91;28.81;99584.47;10353466;28;20044;-79
2023/07/21 11:18:31;;;;;;;6.22;2.80;;;;;;;36.85;29.17;99565.75;10357285;28;20045;-79
2023/07/21 11:23:32;;;;;;;5.40;2.60;;;;;;;36.84;28.06;99566.94;10352260;28;20077;-80
2023/07/21 11:28:34;;;;;;;18.60;3.20;;;;;;;36.93;29.40;99567.50;10353631;28;20508;-79
2023/07/21 11:33:46;;;;;;;10.50;2.70;;;;;;;37.10;28.57;99585.69;10354093;28;20076;-80
2023/07/21 11:39:08;;;;;;;9.32;2.70;;;;;;;36.38;28.98;99498.34;10351548;28;20505;-79
2023/07/21 11:44:28;;;;;;;12.00;2.90;;;;;;;36.92;29.23;99583.31;10346578;28;20050;-81
2023/07/21 11:49:28;;;;;;;25.50;3.83;;;;;;;36.18;29.50;99447.75;10359232;28;20041;-80
2023/07/21 11:54:36;;;;;;;15.67;3.27;;;;;;;36.88;28.13;99553.97;10362929;28;20042;-79
2023/07/21 11:59:37;;;;;;;4.65;2.53;;;;;;;36.92;27.45;99554.84;10368657;28;20141;-78
2023/07/21 12:04:38;;;;;;;7.60;2.70;;;;;;;36.92;27.92;99565.94;10367616;28;20045;-77
2023/07/21 12:09:39;;;;;;;12.87;3.30;;;;;;;36.58;28.98;99492.84;10369580;28;20056;-78
2023/07/21 12:14:40;;;;;;;9.30;2.50;;;;;;;36.93;28.46;99568.31;10363677;28;20045;-79
2023/07/21 12:19:40;;;;;;;10.67;3.07;;;;;;;36.97;28.65;99571.94;10374954;28;20033;-78
2023/07/21 12:24:41;;;;;;;8.27;2.73;;;;;;;36.67;27.65;99494.22;10372600;28;20151;-78
2023/07/21 12:29:42;;;;;;;12.53;2.97;;;;;;;37.15;27.85;99550.19;10370813;28;20076;-78
2023/07/21 12:34:43;;;;;;;13.50;3.10;;;;;;;36.82;28.41;99544.34;10368320;28;20046;-79
2023/07/21 12:39:46;;;;;;;18.10;3.27;;;;;;;36.96;28.00;99555.72;10370679;28;20058;-80
2023/07/21 12:44:46;;;;;;;14.48;3.38;;;;;;;36.56;28.07;99504.31;10363953;28;20076;-79
2023/07/21 12:49:49;;;;;;;5.90;2.80;;;;;;;36.73;27.04;99550.09;10365242;28;20462;-78
2023/07/21 12:54:50;;;;;;;11.27;2.80;;;;;;;36.83;28.46;99574.44;10369727;28;20101;-79
2023/07/21 12:59:50;;;;;;;11.10;2.50;;;;;;;36.72;27.50;99554.84;10363300;28;20042;-79
2023/07/21 13:04:51;;;;;;;7.23;2.90;;;;;;;36.68;27.60;99559.50;10368141;28;20042;-79
2023/07/21 13:09:52;;;;;;;7.80;2.90;;;;;;;36.62;27.89;99522.22;10370132;28;20132;-77
2023/07/21 13:14:53;;;;;;;7.43;2.67;;;;;;;36.73;27.60;99509.38;10370565;28;20493;-76
2023/07/21 13:19:54;;;;;;;4.17;2.50;;;;;;;37.11;27.36;99551.28;10363751;28;20509;-76
2023/07/21 13:24:54;;;;;;;8.73;2.90;;;;;;;36.64;27.24;99463.72;10369904;28;20046;-78
2023/07/21 13:29:55;;;;;;;12.13;2.80;;;;;;;36.81;27.47;99520.63;10366391;28;20445;-79
2023/07/21 13:34:57;;;;;;;12.77;2.83;;;;;;;36.60;27.41;99532.03;10365787;28;20562;-77
2023/07/21 13:39:57;;;;;;;11.40;2.53;;;;;;;36.56;27.21;99543.03;10373705;28;20484;-78
2023/07/21 13:44:58;;;;;;;6.37;2.43;;;;;;;36.55;28.76;99531.16;10396188;28;20060;-76
2023/07/21 13:49:59;;;;;;;9.95;2.78;;;;;;;36.58;27.33;99539.88;10372802;28;20050;-78
2023/07/21 13:55:00;;;;;;;20.38;3.17;;;;;;;36.62;26.87;99538.00;10378560;28;20034;-79
2023/07/21 14:00:01;;;;;;;30.85;4.68;;;;;;;36.33;28.42;99491.13;10373318;28;20044;-78
2023/07/21 14:05:02;;;;;;;36.83;4.07;;;;;;;36.53;27.98;99521.63;10391343;28;20049;-77
2023/07/21 14:10:03;;;;;;;15.63;2.78;;;;;;;36.03;28.10;99460.47;10402218;28;20041;-77
2023/07/21 14:15:05;;;;;;;16.50;2.20;;;;;;;36.46;27.40;99565.69;10401148;28;20046;-78
2023/07/21 14:20:13;;;;;;;14.93;3.53;;;;;;;35.48;27.74;99431.06;10381061;28;20037;-79
2023/07/21 14:25:14;;;;;;;26.92;3.13;;;;;;;36.13;28.35;99550.31;10352962;28;20042;-78
2023/07/21 14:30:15;;;;;;;28.38;2.95;;;;;;;36.04;28.94;99571.81;10374539;28;20034;-76
2023/07/21 14:35:17;;;;;;;10.27;2.28;;;;;;;35.82;28.40;99540.88;10369365;28;20049;-76
2023/07/21 14:40:18;;;;;;;12.23;2.67;;;;;;;35.91;27.95;99562.00;10366854;28;20088;-79
2023/07/21 14:45:19;;;;;;;15.13;2.35;;;;;;;35.81;28.33;99560.56;10368396;28;20133;-78
2023/07/21 14:50:21;;;;;;;14.40;2.40;;;;;;;35.59;27.76;99534.38;10370459;28;20033;-78
2023/07/21 14:55:22;;;;;;;15.95;2.72;;;;;;;35.79;29.05;99573.94;10368450;28;20119;-76
2023/07/21 15:00:23;;;;;;;15.73;2.50;;;;;;;35.62;28.57;99578.66;10367595;28;20122;-76
2023/07/21 15:05:24;;;;;;;20.30;2.67;;;;;;;35.46;28.84;99560.44;10364391;28;20041;-77
2023/07/21 15:10:25;;;;;;;5.67;2.07;;;;;;;35.32;29.70;99547.03;10367721;28;20041;-77
2023/07/21 15:15:26;;;;;;;33.03;3.38;;;;;;;35.26;29.21;99574.09;10374413;28;20288;-77
2023/07/21 15:20:26;;;;;;;9.45;2.67;;;;;;;34.70;28.85;99510.59;10366505;28;20042;-77
2023/07/21 15:25:27;;;;;;;16.67;3.15;;;;;;;34.93;30.22;99574.31;10362863;28;20050;-78
2023/07/21 15:30:28;;;;;;;12.00;2.33;;;;;;;34.81;29.66;99574.38;10366374;28;20075;-77
2023/07/21 15:35:29;;;;;;;11.88;2.50;;;;;;;34.66;30.06;99584.19;10366485;28;20128;-76
2023/07/21 15:40:30;;;;;;;17.50;2.70;;;;;;;34.54;30.27;99596.03;10365447;28;20552;-76
2023/07/21 15:45:30;;;;;;;32.42;3.72;;;;;;;33.75;31.12;99527.31;10366461;28;20065;-77
2023/07/21 15:50:31;;;;;;;289.38;18.77;;;;;;;33.67;35.01;99591.56;10376546;28;20041;-76
2023/07/21 15:55:32;;;;;;;54.42;5.45;;;;;;;33.15;35.42;99584.63;10366448;28;20034;-76
2023/07/21 16:00:33;;;;;;;71.32;5.18;;;;;;;32.79;37.54;99606.41;10421574;28;20092;-75
2023/07/21 16:05:37;;;;;;;32.00;5.28;;;;;;;32.16;38.95;99582.34;10570269;28;20499;-75
2023/07/21 16:10:38;;;;;;;29.75;3.70;;;;;;;32.06;39.00;99597.22;10579964;28;20060;-74
2023/07/21 16:15:39;;;;;;;33.10;4.20;;;;;;;31.58;40.59;99584.59;10580194;28;20415;-75
2023/07/21 16:20:42;;;;;;;64.28;5.75;;;;;;;31.38;41.44;99582.53;10563247;28;20176;-75
2023/07/21 16:25:42;;;;;;;;;;;;;;;31.44;41.33;99600.47;10580668;28;20039;-76
2023/07/21 16:30:43;;;;;;;57.42;7.07;;;;;;;30.82;43.17;99607.06;10509026;28;19928;-75
2023/07/21 16:35:49;;;;;;;52.85;4.50;;;;;;;30.46;45.29;99590.88;10365902;28;20103;-75
2023/07/21 16:40:50;;;;;;;67.45;6.28;;;;;;;30.22;45.26;99596.75;10371088;28;20052;-75
2023/07/21 16:45:51;;;;;;;47.25;6.05;;;;;;;30.00;45.34;99601.16;10343596;28;20038;-76
2023/07/21 16:50:51;;;;;;;77.50;7.30;;;;;;;29.93;47.50;99630.09;10376242;28;20042;-76
2023/07/21 16:55:53;;;;;;;58.20;6.60;;;;;;;29.66;48.43;99647.50;10384457;28;20037;-75
2023/07/21 17:00:54;;;;;;;58.38;5.70;;;;;;;29.48;49.02;99658.28;10405732;28;20474;-75
2023/07/21 17:05:55;;;;;;;47.45;6.40;;;;;;;29.43;49.04;99677.56;10388110;28;20510;-75
2023/07/21 17:10:59;;;;;;;58.13;6.70;;;;;;;29.10;50.11;99650.41;10407440;28;20066;-74
2023/07/21 17:15:59;;;;;;;42.15;5.30;;;;;;;29.09;49.76;99680.81;10379833;28;20037;-73
2023/07/21 17:21:00;;;;;;;67.38;7.38;;;;;;;29.08;51.75;99714.75;10385712;28;20493;-74
2023/07/21 17:26:08;;;;;;;30.52;4.43;;;;;;;29.03;53.85;99759.41;10379604;28;20058;-75
2023/07/21 17:31:08;;;;;;;41.08;4.97;;;;;;;28.63;50.09;99788.34;10378914;28;20046;-72
2023/07/21 17:36:09;;;;;;;130.98;11.73;;;;;;;28.59;48.67;99692.47;10371271;28;20045;-73
2023/07/21 17:41:10;;;;;;;29.67;5.60;;;;;;;28.97;47.80;99762.53;10368053;28;20069;-73
2023/07/21 17:46:11;;;;;;;24.52;4.72;;;;;;;29.16;48.90;99828.06;10375365;28;20041;-71
2023/07/21 17:51:11;;;;;;;21.83;4.20;;;;;;;28.15;49.36;99739.44;10372813;28;20041;-73
2023/07/21 17:56:12;;;;;;;18.55;4.22;;;;;;;28.58;50.65;99889.53;10392074;28;20042;-74
2023/07/21 18:01:13;;;;;;;29.77;4.28;;;;;;;27.82;52.41;99828.69;10381223;28;20379;-74
2023/07/21 18:06:14;;;;;;;21.45;5.15;;;;;;;27.76;54.48;99880.59;10377570;28;20057;-73
2023/07/21 18:11:14;;;;;;;11.45;4.30;;;;;;;27.42;55.83;99885.41;10381265;28;20132;-74
2023/07/21 18:16:17;;;;;;;14.60;4.60;;;;;;;27.11;57.19;99874.81;10365041;28;20038;-73
2023/07/21 18:21:18;;;;;;;11.73;4.50;;;;;;;27.12;57.19;99889.25;10350892;28;20030;-72
2023/07/21 18:26:23;;;;;;;12.73;4.22;;;;;;;27.03;58.72;99889.06;10395159;28;20053;-72
2023/07/21 18:31:24;;;;;;;16.40;4.60;;;;;;;26.53;58.31;99831.22;10388937;28;20044;-73
2023/07/21 18:36:25;;;;;;;8.55;3.50;;;;;;;26.85;58.26;99887.88;10392198;28;20047;-74
2023/07/21 18:41:27;;;;;;;9.77;3.35;;;;;;;26.62;58.35;99873.94;10375055;28;20062;-72
2023/07/21 18:46:28;;;;;;;10.45;3.85;;;;;;;26.04;59.11;99794.84;10363057;28;20049;-73
2023/07/21 18:51:28;;;;;;;8.15;3.65;;;;;;;26.33;59.68;99873.84;10369288;28;20050;-73
2023/07/21 18:56:29;;;;;;;8.27;3.50;;;;;;;25.77;59.75;99814.31;10369086;28;20041;-73
2023/07/21 19:01:30;;;;;;;10.38;3.08;;;;;;;26.02;59.55;99864.25;10381853;28;20045;-71
2023/07/21 19:06:31;;;;;;;10.73;3.33;;;;;;;26.10;59.46;99860.94;10383684;28;20053;-71
2023/07/21 19:11:32;;;;;;;13.45;4.07;;;;;;;26.08;59.67;99869.38;10374140;28;20401;-71
2023/07/21 19:16:33;;;;;;;9.15;3.85;;;;;;;25.96;60.09;99858.84;10370241;28;20083;-71
2023/07/21 19:21:33;;;;;;;9.88;3.45;;;;;;;25.57;60.35;99823.41;10368556;28;20042;-72
2023/07/21 19:26:34;;;;;;;12.15;4.15;;;;;;;26.11;60.88;99911.56;10367922;28;20493;-72
2023/07/21 19:31:37;;;;;;;12.98;3.92;;;;;;;26.17;60.89;99905.84;10378206;28;20044;-72
2023/07/21 19:36:38;;;;;;;;;;;;;;;26.33;60.58;99913.91;10367783;28;20050;-72
2023/07/21 19:41:39;;;;;;;8.50;3.45;;;;;;;26.11;59.85;99896.03;10368377;28;19933;-71
2023/07/21 19:46:39;;;;;;;7.32;3.60;;;;;;;26.23;59.70;99903.88;10367795;28;20072;-70
2023/07/21 19:51:40;;;;;;;13.32;3.42;;;;;;;26.26;60.14;99905.22;10366779;28;20041;-71
2023/07/21 19:56:42;;;;;;;7.28;3.28;;;;;;;26.03;59.86;99888.50;10368198;28;20050;-71
2023/07/21 20:01:43;;;;;;;9.45;3.65;;;;;;;26.21;59.79;99936.03;10363128;28;20034;-71
2023/07/21 20:06:44;;;;;;;17.85;4.65;;;;;;;26.19;59.94;99933.56;10350014;28;20045;-71
2023/07/21 20:11:45;;;;;;;8.43;4.30;;;;;;;26.20;59.46;99942.53;10349658;28;20049;-71
2023/07/21 20:16:45;;;;;;;14.20;4.53;;;;;;;26.21;60.05;99959.72;10366623;28;20038;-71
2023/07/21 20:21:46;;;;;;;11.75;4.30;;;;;;;25.98;61.12;99955.75;10366964;28;20042;-71
2023/07/21 20:26:47;;;;;;;8.93;4.63;;;;;;;25.95;61.90;99984.31;10367209;28;20056;-73
2023/07/21 20:31:48;;;;;;;10.02;4.40;;;;;;;25.81;61.95;99978.63;10363336;28;20459;-71
2023/07/21 20:36:51;;;;;;;7.95;3.63;;;;;;;25.36;63.42;99983.09;10366153;28;20066;-71
2023/07/21 20:41:52;;;;;;;8.13;3.78;;;;;;;25.12;64.03;99993.72;10365748;28;20069;-72
2023/07/21 20:46:56;;;;;;;6.90;3.45;;;;;;;24.69;65.29;99962.47;10365647;28;20049;-71
2023/07/21 20:51:56;;;;;;;9.27;3.53;;;;;;;24.16;64.52;99892.06;10366261;28;20057;-71
2023/07/21 20:56:57;;;;;;;10.85;3.53;;;;;;;24.99;64.82;100041.28;10365774;28;20045;-71
2023/07/21 21:01:58;;;;;;;7.50;3.40;;;;;;;25.05;65.11;100048.34;10365999;28;20516;-71
2023/07/21 21:06:59;;;;;;;7.45;3.45;;;;;;;24.47;64.96;99974.41;10366033;28;20046;-71
2023/07/21 21:12:00;;;;;;;6.82;2.80;;;;;;;24.98;64.50;100063.31;10365667;28;20038;-71
2023/07/21 21:17:00;;;;;;;5.97;2.60;;;;;;;24.94;63.50;100052.13;10363514;28;20041;-71
2023/07/21 21:22:01;;;;;;;5.65;2.40;;;;;;;24.85;63.06;100033.94;10363831;28;20042;-71
2023/07/21 21:27:02;;;;;;;8.38;2.33;;;;;;;25.16;62.85;100075.53;10364903;28;20045;-71
2023/07/21 21:32:03;;;;;;;4.85;2.40;;;;;;;25.19;62.44;100053.28;10364966;28;20049;-71
2023/07/21 21:37:06;;;;;;;5.22;2.33;;;;;;;25.33;61.96;100040.75;10364943;28;20045;-71
2023/07/21 21:42:06;;;;;;;7.90;1.98;;;;;;;25.51;62.14;100059.22;10364435;28;20144;-70
2023/07/21 21:47:07;;;;;;;5.57;2.10;;;;;;;25.08;62.52;99997.25;10364228;28;20124;-72
2023/07/21 21:52:08;;;;;;;7.20;2.60;;;;;;;25.41;63.21;100083.72;10347264;28;20034;-71
2023/07/21 21:57:09;;;;;;;8.65;2.50;;;;;;;25.31;63.85;100056.53;10365951;28;20041;-71
2023/07/21 22:02:10;;;;;;;10.40;2.63;;;;;;;25.42;63.53;100060.88;10370829;28;20564;-71
2023/07/21 22:07:11;;;;;;;8.55;2.53;;;;;;;25.50;63.42;100075.81;10370507;28;20041;-71
2023/07/21 22:12:11;;;;;;;9.77;2.40;;;;;;;25.64;62.45;100081.53;10370600;28;20466;-70
2023/07/21 22:17:12;;;;;;;8.82;2.60;;;;;;;25.10;62.40;99989.63;10370358;28;20087;-70
2023/07/21 22:22:13;;;;;;;9.68;3.15;;;;;;;25.72;62.83;100089.13;10350259;28;20077;-71
2023/07/21 22:27:14;;;;;;;7.28;2.88;;;;;;;25.75;63.21;100094.00;10370582;28;20162;-70
2023/07/21 22:32:14;;;;;;;8.38;2.88;;;;;;;25.62;63.30;100067.38;10370003;28;20128;-70
2023/07/21 22:37:15;;;;;;;9.30;2.90;;;;;;;25.65;62.85;100083.97;10370241;28;20038;-70
2023/07/21 22:42:16;;;;;;;11.05;3.10;;;;;;;25.62;62.83;100067.38;10369715;28;20069;-71
2023/07/21 22:47:17;;;;;;;9.40;2.95;;;;;;;25.75;62.79;100096.72;10369170;28;20049;-72
2023/07/21 22:52:18;;;;;;;9.27;3.20;;;;;;;25.34;62.62;100027.97;10333547;28;20070;-71
2023/07/21 22:57:18;;;;;;;9.07;3.40;;;;;;;25.68;63.39;100098.94;10351430;28;20053;-71
2023/07/21 23:02:19;;;;;;;18.52;3.40;;;;;;;25.48;63.81;100084.25;10369028;28;20516;-71
2023/07/21 23:07:20;;;;;;;9.95;3.35;;;;;;;25.49;63.24;100104.94;10369498;28;20038;-71
2023/07/21 23:12:21;;;;;;;14.32;3.30;;;;;;;25.17;63.39;100060.88;10369744;28;20059;-72